createdAt,value
2022-11-25T00:01:45.693Z,16.50
2022-11-25T00:06:48.660Z,9.80
2022-11-25T00:11:53.093Z,9.10
2022-11-25T00:16:56.139Z,14.00
2022-11-25T00:21:59.160Z,14.30
2022-11-25T00:27:05.010Z,13.00
2022-11-25T00:32:10.782Z,14.60
2022-11-25T00:37:13.810Z,13.63
2022-11-25T00:42:35.921Z,17.07
2022-11-25T00:47:38.932Z,15.50
2022-11-25T00:52:41.986Z,14.87
2022-11-25T00:57:46.246Z,18.50
2022-11-25T01:02:49.555Z,15.63
2022-11-25T01:07:52.568Z,15.57
2022-11-25T01:12:57.804Z,13.30
2022-11-25T01:18:00.732Z,13.90
2022-11-25T01:23:03.668Z,11.93
2022-11-25T01:28:08.135Z,14.57
2022-11-25T01:33:11.072Z,9.20
2022-11-25T01:38:14.068Z,13.87
2022-11-25T01:43:18.514Z,11.47
2022-11-25T01:48:27.346Z,13.37
2022-11-25T01:53:30.454Z,16.10
2022-11-25T01:58:38.417Z,11.83
2022-11-25T02:03:44.510Z,13.40
2022-11-25T02:08:52.453Z,19.47
2022-11-25T02:13:57.965Z,12.30
2022-11-25T02:19:03.705Z,18.63
2022-11-25T02:24:13.693Z,16.43
2022-11-25T02:29:22.286Z,13.53
2022-11-25T02:34:25.364Z,11.80
2022-11-25T02:39:29.856Z,13.80
2022-11-25T02:44:35.138Z,9.23
2022-11-25T02:49:38.374Z,10.63
2022-11-25T02:54:41.906Z,8.93
2022-11-25T02:59:46.376Z,6.77
2022-11-25T03:04:50.348Z,10.23
2022-11-25T03:09:55.709Z,8.47
2022-11-25T03:15:00.198Z,3.53
2022-11-25T03:20:05.160Z,5.27
2022-11-25T03:25:09.175Z,5.50
2022-11-25T03:30:16.564Z,4.40
2022-11-25T03:35:21.727Z,6.00
2022-11-25T03:40:25.103Z,5.97
2022-11-25T03:45:29.777Z,3.87
2022-11-25T03:50:35.564Z,5.00
2022-11-25T03:55:38.683Z,5.70
2022-11-25T04:00:43.243Z,4.57
2022-11-25T04:05:46.256Z,7.30
2022-11-25T04:10:52.541Z,4.83
2022-11-25T04:16:01.141Z,3.43
2022-11-25T04:21:04.367Z,3.93
2022-11-25T04:26:07.769Z,4.27
2022-11-25T04:31:16.663Z,3.40
2022-11-25T04:36:20.619Z,3.73
2022-11-25T04:41:26.920Z,3.47
2022-11-25T04:46:38.176Z,3.73
2022-11-25T04:51:41.481Z,3.17
2022-11-25T04:56:44.513Z,1.57
2022-11-25T05:01:49.127Z,2.80
2022-11-25T05:07:14.850Z,1.70
2022-11-25T05:12:22.940Z,2.73
2022-11-25T05:17:29.863Z,3.67
2022-11-25T05:22:35.330Z,2.30
2022-11-25T05:27:40.069Z,5.70
2022-11-25T05:32:47.566Z,3.43
2022-11-25T05:37:51.186Z,5.23
2022-11-25T05:42:54.409Z,7.43
2022-11-25T05:47:59.411Z,6.07
2022-11-25T05:53:04.536Z,5.40
2022-11-25T05:58:09.227Z,4.50
2022-11-25T06:03:13.786Z,3.33
2022-11-25T06:08:18.260Z,4.47
2022-11-25T06:13:22.082Z,5.30
2022-11-25T06:18:29.277Z,6.30
2022-11-25T06:23:33.054Z,7.40
2022-11-25T06:28:37.368Z,7.87
2022-11-25T06:33:42.347Z,8.30
2022-11-25T06:38:47.356Z,5.03
2022-11-25T06:43:50.505Z,4.80
2022-11-25T06:48:55.948Z,4.43
2022-11-25T06:53:58.919Z,4.43
2022-11-25T06:59:02.680Z,4.03
2022-11-25T07:04:07.349Z,5.50
2022-11-25T07:09:10.304Z,6.40
2022-11-25T07:14:15.361Z,7.70
2022-11-25T07:19:20.605Z,4.27
2022-11-25T07:24:25.635Z,3.63
2022-11-25T07:29:54.195Z,7.43
2022-11-25T07:34:55.353Z,6.20
2022-11-25T07:39:58.396Z,8.03
2022-11-25T07:45:01.575Z,6.87
2022-11-25T07:50:18.298Z,6.23
2022-11-25T07:55:21.559Z,7.27
2022-11-25T08:00:27.149Z,6.83
2022-11-25T08:05:33.623Z,6.33
2022-11-25T08:10:36.642Z,7.70
2022-11-25T08:15:39.742Z,8.60
2022-11-25T08:20:44.428Z,6.53
2022-11-25T08:25:50.438Z,9.83
2022-11-25T08:30:56.526Z,5.30
2022-11-25T08:36:01.345Z,5.53
2022-11-25T08:41:05.076Z,4.63
2022-11-25T08:46:12.971Z,4.60
2022-11-25T08:51:20.906Z,5.87
2022-11-25T08:56:26.554Z,5.57
2022-11-25T09:01:30.196Z,7.43
2022-11-25T09:06:34.895Z,6.67
2022-11-25T09:11:38.070Z,9.20
2022-11-25T09:16:41.453Z,5.37
2022-11-25T09:21:45.903Z,9.13
2022-11-25T09:26:49.468Z,8.63
2022-11-25T09:31:55.031Z,13.53
2022-11-25T09:36:59.732Z,5.80
2022-11-25T09:42:36.724Z,7.20
2022-11-25T09:47:52.863Z,9.67
2022-11-25T09:53:12.678Z,7.50
2022-11-25T09:58:25.146Z,7.70
2022-11-25T10:03:36.126Z,6.10
2022-11-25T10:08:44.370Z,5.80
2022-11-25T10:13:57.592Z,5.03
2022-11-25T10:19:03.838Z,4.17
2022-11-25T10:24:14.602Z,5.53
2022-11-25T10:29:25.774Z,6.63
2022-11-25T10:34:37.508Z,5.93
2022-11-25T10:39:42.233Z,9.70
2022-11-25T10:44:45.581Z,7.47
2022-11-25T10:50:01.057Z,6.70
2022-11-25T10:55:12.947Z,7.23
2022-11-25T11:00:30.441Z,6.27
2022-11-25T11:05:33.838Z,4.53
2022-11-25T11:10:38.350Z,5.53
2022-11-25T11:15:47.530Z,6.93
2022-11-25T11:20:53.286Z,4.30
2022-11-25T11:26:01.494Z,5.30
2022-11-25T11:31:08.195Z,5.53
2022-11-25T11:36:32.196Z,7.07
2022-11-25T11:41:43.794Z,5.37
2022-11-25T11:47:08.359Z,5.77
2022-11-25T11:52:22.133Z,7.53
2022-11-25T11:57:46.120Z,9.93
2022-11-25T12:02:58.010Z,5.83
2022-11-25T12:08:08.055Z,7.90
2022-11-25T12:13:22.003Z,7.67
2022-11-25T12:18:40.154Z,8.10
2022-11-25T12:23:51.436Z,9.87
2022-11-25T12:29:00.877Z,9.93
2022-11-25T12:34:10.599Z,8.77
2022-11-25T12:39:23.100Z,10.23
2022-11-25T12:44:32.516Z,7.93
2022-11-25T12:49:43.172Z,9.97
2022-11-25T12:55:10.044Z,8.07
2022-11-25T13:06:11.013Z,12.00
2022-11-25T13:11:41.244Z,7.77
2022-11-25T13:16:48.380Z,9.50
2022-11-25T13:21:59.914Z,9.37
2022-11-25T13:27:05.297Z,12.30
2022-11-25T13:32:31.723Z,11.33
2022-11-25T13:37:40.125Z,9.30
2022-11-25T13:42:45.963Z,16.57
2022-11-25T13:47:50.784Z,11.27
2022-11-25T13:53:01.137Z,8.67
2022-11-25T13:58:19.509Z,9.37
2022-11-25T14:03:51.517Z,10.57
2022-11-25T14:08:58.811Z,12.07
2022-11-25T14:14:20.770Z,6.93
2022-11-25T14:19:52.054Z,10.87
2022-11-25T14:25:02.046Z,11.70
2022-11-25T14:30:07.352Z,9.53
2022-11-25T14:35:17.216Z,10.53
2022-11-25T14:40:26.886Z,15.70
2022-11-25T14:45:33.489Z,11.50
2022-11-25T14:50:39.396Z,10.73
2022-11-25T14:55:42.941Z,12.27
2022-11-25T15:00:55.697Z,10.87
2022-11-25T15:06:05.366Z,11.67
2022-11-25T15:11:14.810Z,9.03
2022-11-25T15:16:20.771Z,13.10
2022-11-25T15:21:30.407Z,11.03
2022-11-25T15:26:35.320Z,11.97
2022-11-25T15:31:39.359Z,13.17
2022-11-25T15:36:43.887Z,11.37
2022-11-25T15:41:49.342Z,14.70
2022-11-25T15:46:57.259Z,16.40
2022-11-25T15:52:08.661Z,11.50
2022-11-25T15:57:20.733Z,12.57
2022-11-25T16:02:33.376Z,14.93
2022-11-25T16:07:41.115Z,12.80
2022-11-25T16:12:44.208Z,14.43
2022-11-25T16:17:47.386Z,10.37
2022-11-25T16:22:51.810Z,12.80
2022-11-25T16:27:54.986Z,13.47
2022-11-25T16:32:58.177Z,14.13
2022-11-25T16:38:02.820Z,14.40
2022-11-25T16:43:08.217Z,13.97
2022-11-25T16:48:17.098Z,11.73
2022-11-25T16:53:21.533Z,14.90
2022-11-25T16:58:26.452Z,13.67
2022-11-25T17:03:29.746Z,15.23
2022-11-25T17:08:34.214Z,14.47
2022-11-25T17:13:41.286Z,16.63
2022-11-25T17:18:44.775Z,13.27
2022-11-25T17:23:53.822Z,13.40
2022-11-25T17:29:01.108Z,17.10
2022-11-25T17:34:04.112Z,14.33
2022-11-25T17:39:10.191Z,13.13
2022-11-25T17:44:24.208Z,17.73
2022-11-25T17:49:27.488Z,13.63
2022-11-25T17:54:31.819Z,10.57
2022-11-25T17:59:36.561Z,12.80
2022-11-25T18:04:39.800Z,10.80
2022-11-25T18:09:45.415Z,12.97
2022-11-25T18:14:48.611Z,9.40
2022-11-25T18:19:55.306Z,9.93
2022-11-25T18:25:02.227Z,13.33
2022-11-25T18:30:19.667Z,15.23
2022-11-25T18:35:27.046Z,11.60
2022-11-25T18:40:36.268Z,12.77
2022-11-25T18:45:40.447Z,11.03
2022-11-25T18:50:44.155Z,14.87
2022-11-25T18:55:49.906Z,13.83
2022-11-25T19:00:55.403Z,8.93
2022-11-25T19:06:01.030Z,11.97
2022-11-25T19:11:05.705Z,11.73
2022-11-25T19:16:13.948Z,14.77
2022-11-25T19:21:18.656Z,16.47
2022-11-25T19:26:30.108Z,13.27
2022-11-25T19:31:34.663Z,10.13
2022-11-25T19:36:37.851Z,13.37
2022-11-25T19:41:42.333Z,13.47
2022-11-25T19:47:14.271Z,12.93
2022-11-25T19:52:16.985Z,11.17
2022-11-25T19:57:25.913Z,13.00
2022-11-25T20:02:30.262Z,14.67
2022-11-25T20:07:33.574Z,8.33
2022-11-25T20:12:38.163Z,12.83
2022-11-25T20:17:43.433Z,18.83
2022-11-25T20:22:55.569Z,13.37
2022-11-25T20:28:02.890Z,11.93
2022-11-25T20:33:09.014Z,10.83
2022-11-25T20:38:17.020Z,14.40
2022-11-25T20:43:32.188Z,15.67
2022-11-25T20:48:38.150Z,17.60
2022-11-25T20:53:46.110Z,14.37
2022-11-25T20:58:50.845Z,15.07
2022-11-25T21:03:56.518Z,11.17
2022-11-25T21:09:02.424Z,13.77
2022-11-25T21:14:18.815Z,16.77
2022-11-25T21:19:22.164Z,15.10
2022-11-25T21:24:31.676Z,11.90
2022-11-25T21:29:36.569Z,10.10
2022-11-25T21:34:39.961Z,14.53
2022-11-25T21:39:43.695Z,11.60
2022-11-25T21:44:49.963Z,10.53
2022-11-25T21:49:54.832Z,15.37
2022-11-25T21:54:58.022Z,14.37
2022-11-25T22:00:03.993Z,12.83
2022-11-25T22:05:15.630Z,11.80
2022-11-25T22:10:19.216Z,14.57
2022-11-25T22:15:26.336Z,13.90
2022-11-25T22:20:30.687Z,12.17
2022-11-25T22:25:34.320Z,16.33
2022-11-25T22:30:38.541Z,8.87
2022-11-25T22:35:41.635Z,12.73
2022-11-25T22:40:45.933Z,13.17
2022-11-25T22:45:50.966Z,12.67
2022-11-25T22:50:54.096Z,11.13
2022-11-25T22:55:58.499Z,11.73
2022-11-25T23:01:02.983Z,19.20
2022-11-25T23:06:08.933Z,12.30
2022-11-25T23:11:17.338Z,13.80
2022-11-25T23:16:21.743Z,15.63
2022-11-25T23:21:29.182Z,14.63
2022-11-25T23:26:34.987Z,14.97
2022-11-25T23:31:41.135Z,18.60
2022-11-25T23:36:46.518Z,12.07
2022-11-25T23:41:49.943Z,13.13
2022-11-25T23:46:57.774Z,10.47
2022-11-25T23:52:07.742Z,13.03
2022-11-25T23:57:15.636Z,14.80
